sensor_id;sensor_type;location;lat;lon;timestamp;temperature;humidity
15239;DHT22;7722;53.274;9.500;2024-01-15T00:00:45;0.80;99.90
15239;DHT22;7722;53.274;9.500;2024-01-15T00:03:13;0.80;99.90
15239;DHT22;7722;53.274;9.500;2024-01-15T00:05:40;0.80;99.90
15239;DHT22;7722;53.274;9.500;2024-01-15T00:08:07;0.80;99.90
15239;DHT22;7722;53.274;9.500;2024-01-15T00:10:36;0.90;99.90
15239;DHT22;7722;53.274;9.500;2024-01-15T00:13:04;1.00;99.90
15239;DHT22;7722;53.274;9.500;2024-01-15T00:15:31;1.00;99.90
15239;DHT22;7722;53.274;9.500;2024-01-15T00:17:59;1.10;99.90
15239;DHT22;7722;53.274;9.500;2024-01-15T00:20:26;1.10;99.90
15239;DHT22;7722;53.274;9.500;2024-01-15T00:22:53;1.10;99.90
15239;DHT22;7722;53.274;9.500;2024-01-15T00:25:20;1.20;99.90
15239;DHT22;7722;53.274;9.500;2024-01-15T00:27:49;1.20;99.90
15239;DHT22;7722;53.274;9.500;2024-01-15T00:30:16;1.20;99.90
15239;DHT22;7722;53.274;9.500;2024-01-15T00:32:43;1.20;99.90
15239;DHT22;7722;53.274;9.500;2024-01-15T00:35:10;1.20;99.90
15239;DHT22;7722;53.274;9.500;2024-01-15T00:37:37;1.20;99.90
15239;DHT22;7722;53.274;9.500;2024-01-15T00:40:06;1.20;99.90
15239;DHT22;7722;53.274;9.500;2024-01-15T00:42:33;1.20;99.90
15239;DHT22;7722;53.274;9.500;2024-01-15T00:45:04;1.30;99.90
15239;DHT22;7722;53.274;9.500;2024-01-15T00:47:33;1.30;99.90
15239;DHT22;7722;53.274;9.500;2024-01-15T00:50:00;1.30;99.90
15239;DHT22;7722;53.274;9.500;2024-01-15T00:52:27;1.30;99.90
15239;DHT22;7722;53.274;9.500;2024-01-15T00:54:54;1.40;99.90
15239;DHT22;7722;53.274;9.500;2024-01-15T00:57:22;1.40;99.90
15239;DHT22;7722;53.274;9.500;2024-01-15T00:59:49;1.40;99.90
15239;DHT22;7722;53.274;9.500;2024-01-15T01:02:17;1.50;99.90
15239;DHT22;7722;53.274;9.500;2024-01-15T01:04:45;1.50;99.90
15239;DHT22;7722;53.274;9.500;2024-01-15T01:07:12;1.50;99.90
15239;DHT22;7722;53.274;9.500;2024-01-15T01:09:39;1.50;99.90
15239;DHT22;7722;53.274;9.500;2024-01-15T01:12:06;1.40;99.90
15239;DHT22;7722;53.274;9.500;2024-01-15T01:14:33;1.40;99.90
15239;DHT22;7722;53.274;9.500;2024-01-15T01:17:00;1.40;99.90
15239;DHT22;7722;53.274;9.500;2024-01-15T01:19:29;1.40;99.90
15239;DHT22;7722;53.274;9.500;2024-01-15T01:21:57;1.40;99.90
15239;DHT22;7722;53.274;9.500;2024-01-15T01:24:24;1.40;99.90
15239;DHT22;7722;53.274;9.500;2024-01-15T01:26:51;1.40;99.90
15239;DHT22;7722;53.274;9.500;2024-01-15T01:29:18;1.40;99.90
15239;DHT22;7722;53.274;9.500;2024-01-15T01:31:45;1.40;99.90
15239;DHT22;7722;53.274;9.500;2024-01-15T01:34:14;1.40;99.90
15239;DHT22;7722;53.274;9.500;2024-01-15T01:36:43;1.40;99.90
15239;DHT22;7722;53.274;9.500;2024-01-15T01:39:10;1.40;99.90
15239;DHT22;7722;53.274;9.500;2024-01-15T01:41:38;1.40;99.90
15239;DHT22;7722;53.274;9.500;2024-01-15T01:44:06;1.40;99.90
15239;DHT22;7722;53.274;9.500;2024-01-15T01:46:34;1.40;99.90
15239;DHT22;7722;53.274;9.500;2024-01-15T01:49:05;1.40;99.90
15239;DHT22;7722;53.274;9.500;2024-01-15T01:51:33;1.30;99.90
15239;DHT22;7722;53.274;9.500;2024-01-15T01:54:03;1.30;99.90
15239;DHT22;7722;53.274;9.500;2024-01-15T01:56:31;1.20;99.90
15239;DHT22;7722;53.274;9.500;2024-01-15T01:58:59;1.20;99.90
15239;DHT22;7722;53.274;9.500;2024-01-15T02:01:26;1.10;99.90
15239;DHT22;7722;53.274;9.500;2024-01-15T02:03:54;1.10;99.90
15239;DHT22;7722;53.274;9.500;2024-01-15T02:06:22;1.10;99.90
15239;DHT22;7722;53.274;9.500;2024-01-15T02:08:50;1.10;99.90
15239;DHT22;7722;53.274;9.500;2024-01-15T02:11:19;1.10;99.90
15239;DHT22;7722;53.274;9.500;2024-01-15T02:13:46;1.10;99.90
15239;DHT22;7722;53.274;9.500;2024-01-15T02:16:13;1.10;99.90
15239;DHT22;7722;53.274;9.500;2024-01-15T02:18:41;1.10;99.90
15239;DHT22;7722;53.274;9.500;2024-01-15T02:21:08;1.20;99.90
15239;DHT22;7722;53.274;9.500;2024-01-15T02:23:37;1.20;99.90
15239;DHT22;7722;53.274;9.500;2024-01-15T02:26:05;1.30;99.90
15239;DHT22;7722;53.274;9.500;2024-01-15T02:28:33;1.30;99.90
15239;DHT22;7722;53.274;9.500;2024-01-15T02:31:00;1.30;99.90
15239;DHT22;7722;53.274;9.500;2024-01-15T02:33:28;1.30;99.90
15239;DHT22;7722;53.274;9.500;2024-01-15T02:35:55;1.20;99.90
15239;DHT22;7722;53.274;9.500;2024-01-15T02:38:22;1.20;99.90
15239;DHT22;7722;53.274;9.500;2024-01-15T02:40:51;1.30;99.90
15239;DHT22;7722;53.274;9.500;2024-01-15T02:43:18;1.20;99.90
15239;DHT22;7722;53.274;9.500;2024-01-15T02:45:45;1.20;99.90
15239;DHT22;7722;53.274;9.500;2024-01-15T02:48:13;1.30;99.90
15239;DHT22;7722;53.274;9.500;2024-01-15T02:50:40;1.20;99.90
15239;DHT22;7722;53.274;9.500;2024-01-15T02:53:07;1.20;99.90
15239;DHT22;7722;53.274;9.500;2024-01-15T02:55:34;1.20;99.90
15239;DHT22;7722;53.274;9.500;2024-01-15T02:58:03;1.30;99.90
15239;DHT22;7722;53.274;9.500;2024-01-15T03:00:31;1.30;99.90
15239;DHT22;7722;53.274;9.500;2024-01-15T03:02:58;1.30;99.90
15239;DHT22;7722;53.274;9.500;2024-01-15T03:05:25;1.30;99.90
15239;DHT22;7722;53.274;9.500;2024-01-15T03:07:52;1.30;99.90
15239;DHT22;7722;53.274;9.500;2024-01-15T03:10:19;1.30;99.90
15239;DHT22;7722;53.274;9.500;2024-01-15T03:12:46;1.20;99.90
15239;DHT22;7722;53.274;9.500;2024-01-15T03:15:15;1.30;99.90
15239;DHT22;7722;53.274;9.500;2024-01-15T03:17:44;1.20;99.90
15239;DHT22;7722;53.274;9.500;2024-01-15T03:20:11;1.20;99.90
15239;DHT22;7722;53.274;9.500;2024-01-15T03:22:38;1.30;99.90
15239;DHT22;7722;53.274;9.500;2024-01-15T03:25:06;1.30;99.90
15239;DHT22;7722;53.274;9.500;2024-01-15T03:27:33;1.30;99.90
15239;DHT22;7722;53.274;9.500;2024-01-15T03:30:01;1.20;99.90
15239;DHT22;7722;53.274;9.500;2024-01-15T03:32:30;1.20;99.90
15239;DHT22;7722;53.274;9.500;2024-01-15T03:34:57;1.30;99.90
15239;DHT22;7722;53.274;9.500;2024-01-15T03:37:24;1.30;99.90
15239;DHT22;7722;53.274;9.500;2024-01-15T03:39:51;1.30;99.90
15239;DHT22;7722;53.274;9.500;2024-01-15T03:42:18;1.30;99.90
15239;DHT22;7722;53.274;9.500;2024-01-15T03:44:46;1.30;99.90
15239;DHT22;7722;53.274;9.500;2024-01-15T03:47:13;1.30;99.90
15239;DHT22;7722;53.274;9.500;2024-01-15T03:49:41;1.30;99.90
15239;DHT22;7722;53.274;9.500;2024-01-15T03:52:08;1.30;99.90
15239;DHT22;7722;53.274;9.500;2024-01-15T03:54:36;1.30;99.90
15239;DHT22;7722;53.274;9.500;2024-01-15T03:57:03;1.30;99.90
15239;DHT22;7722;53.274;9.500;2024-01-15T03:59:30;1.30;99.90
15239;DHT22;7722;53.274;9.500;2024-01-15T04:01:58;1.30;99.90
15239;DHT22;7722;53.274;9.500;2024-01-15T04:04:25;1.30;99.90
15239;DHT22;7722;53.274;9.500;2024-01-15T04:06:53;1.30;99.90
15239;DHT22;7722;53.274;9.500;2024-01-15T04:09:20;1.30;99.90
15239;DHT22;7722;53.274;9.500;2024-01-15T04:11:48;1.40;99.90
15239;DHT22;7722;53.274;9.500;2024-01-15T04:14:15;1.40;99.90
15239;DHT22;7722;53.274;9.500;2024-01-15T04:16:42;1.30;99.90
15239;DHT22;7722;53.274;9.500;2024-01-15T04:19:09;1.30;99.90
15239;DHT22;7722;53.274;9.500;2024-01-15T04:21:36;1.20;99.90
15239;DHT22;7722;53.274;9.500;2024-01-15T04:24:06;1.20;99.90
15239;DHT22;7722;53.274;9.500;2024-01-15T04:26:33;1.20;99.90
15239;DHT22;7722;53.274;9.500;2024-01-15T04:29:00;1.20;99.90
15239;DHT22;7722;53.274;9.500;2024-01-15T04:31:27;1.10;99.90
15239;DHT22;7722;53.274;9.500;2024-01-15T04:33:54;1.10;99.90
15239;DHT22;7722;53.274;9.500;2024-01-15T04:36:21;1.10;99.90
15239;DHT22;7722;53.274;9.500;2024-01-15T04:38:48;1.10;99.90
15239;DHT22;7722;53.274;9.500;2024-01-15T04:41:17;1.10;99.90
15239;DHT22;7722;53.274;9.500;2024-01-15T04:43:44;1.10;99.90
15239;DHT22;7722;53.274;9.500;2024-01-15T04:46:11;1.10;99.90
15239;DHT22;7722;53.274;9.500;2024-01-15T04:48:38;1.00;99.90
15239;DHT22;7722;53.274;9.500;2024-01-15T04:51:08;1.00;99.90
15239;DHT22;7722;53.274;9.500;2024-01-15T04:53:35;1.00;99.90
15239;DHT22;7722;53.274;9.500;2024-01-15T04:56:03;1.10;99.90
15239;DHT22;7722;53.274;9.500;2024-01-15T04:58:31;1.10;99.90
15239;DHT22;7722;53.274;9.500;2024-01-15T05:00:59;1.10;99.90
15239;DHT22;7722;53.274;9.500;2024-01-15T05:03:26;1.10;99.90
15239;DHT22;7722;53.274;9.500;2024-01-15T05:05:54;1.10;99.90
15239;DHT22;7722;53.274;9.500;2024-01-15T05:08:21;1.10;99.90
15239;DHT22;7722;53.274;9.500;2024-01-15T05:10:48;1.00;99.90
15239;DHT22;7722;53.274;9.500;2024-01-15T05:13:16;1.00;99.90
15239;DHT22;7722;53.274;9.500;2024-01-15T05:15:44;1.00;99.90
15239;DHT22;7722;53.274;9.500;2024-01-15T05:18:12;0.90;99.90
15239;DHT22;7722;53.274;9.500;2024-01-15T05:20:39;0.90;99.90
15239;DHT22;7722;53.274;9.500;2024-01-15T05:23:06;1.00;99.90
15239;DHT22;7722;53.274;9.500;2024-01-15T05:25:33;1.00;99.90
15239;DHT22;7722;53.274;9.500;2024-01-15T05:28:01;1.00;99.90
15239;DHT22;7722;53.274;9.500;2024-01-15T05:30:28;1.00;99.90
15239;DHT22;7722;53.274;9.500;2024-01-15T05:32:56;1.00;99.90
15239;DHT22;7722;53.274;9.500;2024-01-15T05:35:25;1.00;99.90
15239;DHT22;7722;53.274;9.500;2024-01-15T05:37:53;1.00;99.90
15239;DHT22;7722;53.274;9.500;2024-01-15T05:40:20;1.00;99.90
15239;DHT22;7722;53.274;9.500;2024-01-15T05:42:47;1.00;99.90
15239;DHT22;7722;53.274;9.500;2024-01-15T05:45:14;1.00;99.90
15239;DHT22;7722;53.274;9.500;2024-01-15T05:47:41;1.00;99.90
15239;DHT22;7722;53.274;9.500;2024-01-15T05:50:11;1.00;99.90
15239;DHT22;7722;53.274;9.500;2024-01-15T05:52:38;1.10;99.90
15239;DHT22;7722;53.274;9.500;2024-01-15T05:55:05;1.20;99.90
15239;DHT22;7722;53.274;9.500;2024-01-15T05:57:32;1.20;99.90
15239;DHT22;7722;53.274;9.500;2024-01-15T06:00:00;1.20;99.90
15239;DHT22;7722;53.274;9.500;2024-01-15T06:02:27;1.10;99.90
15239;DHT22;7722;53.274;9.500;2024-01-15T06:04:54;1.10;99.90
15239;DHT22;7722;53.274;9.500;2024-01-15T06:07:25;1.20;99.90
15239;DHT22;7722;53.274;9.500;2024-01-15T06:09:52;1.10;99.90
15239;DHT22;7722;53.274;9.500;2024-01-15T06:12:19;1.10;99.90
15239;DHT22;7722;53.274;9.500;2024-01-15T06:14:46;1.10;99.90
15239;DHT22;7722;53.274;9.500;2024-01-15T06:17:14;1.10;99.90
15239;DHT22;7722;53.274;9.500;2024-01-15T06:19:41;1.10;99.90
15239;DHT22;7722;53.274;9.500;2024-01-15T06:22:08;1.20;99.90
15239;DHT22;7722;53.274;9.500;2024-01-15T06:24:36;1.20;99.90
15239;DHT22;7722;53.274;9.500;2024-01-15T06:27:04;1.10;99.90
15239;DHT22;7722;53.274;9.500;2024-01-15T06:29:32;1.10;99.90
15239;DHT22;7722;53.274;9.500;2024-01-15T06:31:59;1.20;99.90
15239;DHT22;7722;53.274;9.500;2024-01-15T06:34:26;1.20;99.90
15239;DHT22;7722;53.274;9.500;2024-01-15T06:36:53;1.20;99.90
15239;DHT22;7722;53.274;9.500;2024-01-15T06:39:20;1.20;99.90
15239;DHT22;7722;53.274;9.500;2024-01-15T06:41:49;1.20;99.90
15239;DHT22;7722;53.274;9.500;2024-01-15T06:44:16;1.20;99.90
15239;DHT22;7722;53.274;9.500;2024-01-15T06:46:43;1.20;99.90
15239;DHT22;7722;53.274;9.500;2024-01-15T06:49:10;1.20;99.90
15239;DHT22;7722;53.274;9.500;2024-01-15T06:51:38;1.20;99.90
15239;DHT22;7722;53.274;9.500;2024-01-15T06:54:05;1.10;99.90
15239;DHT22;7722;53.274;9.500;2024-01-15T06:56:32;1.10;99.90
15239;DHT22;7722;53.274;9.500;2024-01-15T06:59:01;1.10;99.90
15239;DHT22;7722;53.274;9.500;2024-01-15T07:01:28;1.00;99.90
15239;DHT22;7722;53.274;9.500;2024-01-15T07:03:56;1.00;99.90
15239;DHT22;7722;53.274;9.500;2024-01-15T07:06:23;1.00;99.90
15239;DHT22;7722;53.274;9.500;2024-01-15T07:08:50;0.90;99.90
15239;DHT22;7722;53.274;9.500;2024-01-15T07:11:17;0.90;99.90
15239;DHT22;7722;53.274;9.500;2024-01-15T07:13:44;0.90;99.90
15239;DHT22;7722;53.274;9.500;2024-01-15T07:16:13;0.90;99.90
15239;DHT22;7722;53.274;9.500;2024-01-15T07:18:41;0.90;99.90
15239;DHT22;7722;53.274;9.500;2024-01-15T07:21:08;0.90;99.90
15239;DHT22;7722;53.274;9.500;2024-01-15T07:23:35;0.80;99.90
15239;DHT22;7722;53.274;9.500;2024-01-15T07:26:03;0.80;99.90
15239;DHT22;7722;53.274;9.500;2024-01-15T07:28:31;0.80;99.90
15239;DHT22;7722;53.274;9.500;2024-01-15T07:30:58;0.90;99.90
15239;DHT22;7722;53.274;9.500;2024-01-15T07:33:28;0.80;99.90
15239;DHT22;7722;53.274;9.500;2024-01-15T07:35:55;0.80;99.90
15239;DHT22;7722;53.274;9.500;2024-01-15T07:38:22;0.80;99.90
15239;DHT22;7722;53.274;9.500;2024-01-15T07:40:49;0.80;99.90
15239;DHT22;7722;53.274;9.500;2024-01-15T07:43:16;0.80;99.90
15239;DHT22;7722;53.274;9.500;2024-01-15T07:45:43;0.80;99.90
15239;DHT22;7722;53.274;9.500;2024-01-15T07:48:11;0.70;99.90
15239;DHT22;7722;53.274;9.500;2024-01-15T07:50:39;0.70;99.90
15239;DHT22;7722;53.274;9.500;2024-01-15T07:53:06;0.80;99.90
15239;DHT22;7722;53.274;9.500;2024-01-15T07:55:33;0.80;99.90
15239;DHT22;7722;53.274;9.500;2024-01-15T07:58:00;0.90;99.90
15239;DHT22;7722;53.274;9.500;2024-01-15T08:00:28;0.90;99.90
15239;DHT22;7722;53.274;9.500;2024-01-15T08:02:55;0.90;99.90
15239;DHT22;7722;53.274;9.500;2024-01-15T08:05:22;0.90;99.90
15239;DHT22;7722;53.274;9.500;2024-01-15T08:07:51;0.90;99.90
15239;DHT22;7722;53.274;9.500;2024-01-15T08:10:18;0.90;99.90
15239;DHT22;7722;53.274;9.500;2024-01-15T08:12:45;0.90;99.90
15239;DHT22;7722;53.274;9.500;2024-01-15T08:15:12;0.90;99.90
15239;DHT22;7722;53.274;9.500;2024-01-15T08:17:39;0.90;99.90
15239;DHT22;7722;53.274;9.500;2024-01-15T08:20:07;0.90;99.90
15239;DHT22;7722;53.274;9.500;2024-01-15T08:22:34;0.80;99.90
15239;DHT22;7722;53.274;9.500;2024-01-15T08:25:03;0.90;99.90
15239;DHT22;7722;53.274;9.500;2024-01-15T08:27:30;0.80;99.90
15239;DHT22;7722;53.274;9.500;2024-01-15T08:29:57;0.80;99.90
15239;DHT22;7722;53.274;9.500;2024-01-15T08:32:24;0.80;99.90
15239;DHT22;7722;53.274;9.500;2024-01-15T08:34:52;0.80;99.90
15239;DHT22;7722;53.274;9.500;2024-01-15T08:37:19;0.80;99.90
15239;DHT22;7722;53.274;9.500;2024-01-15T08:39:46;0.80;99.90
15239;DHT22;7722;53.274;9.500;2024-01-15T08:42:14;0.70;99.90
15239;DHT22;7722;53.274;9.500;2024-01-15T08:44:41;0.80;99.90
15239;DHT22;7722;53.274;9.500;2024-01-15T08:47:09;0.80;99.90
15239;DHT22;7722;53.274;9.500;2024-01-15T08:49:36;0.90;99.90
15239;DHT22;7722;53.274;9.500;2024-01-15T08:52:03;0.90;99.90
15239;DHT22;7722;53.274;9.500;2024-01-15T08:54:31;1.00;99.90
15239;DHT22;7722;53.274;9.500;2024-01-15T08:56:58;1.00;99.90
15239;DHT22;7722;53.274;9.500;2024-01-15T08:59:26;1.10;99.90
15239;DHT22;7722;53.274;9.500;2024-01-15T09:01:54;1.10;99.90
15239;DHT22;7722;53.274;9.500;2024-01-15T09:04:22;1.20;99.90
15239;DHT22;7722;53.274;9.500;2024-01-15T09:06:50;1.20;99.90
15239;DHT22;7722;53.274;9.500;2024-01-15T09:09:17;1.20;99.90
15239;DHT22;7722;53.274;9.500;2024-01-15T09:11:45;1.20;99.90
15239;DHT22;7722;53.274;9.500;2024-01-15T09:14:12;1.30;99.90
15239;DHT22;7722;53.274;9.500;2024-01-15T09:16:41;1.30;99.90
15239;DHT22;7722;53.274;9.500;2024-01-15T09:19:08;1.20;99.90
15239;DHT22;7722;53.274;9.500;2024-01-15T09:21:35;1.30;99.90
15239;DHT22;7722;53.274;9.500;2024-01-15T09:24:05;1.30;99.90
15239;DHT22;7722;53.274;9.500;2024-01-15T09:26:32;1.30;99.90
15239;DHT22;7722;53.274;9.500;2024-01-15T09:28:59;1.30;99.90
15239;DHT22;7722;53.274;9.500;2024-01-15T09:31:26;1.40;99.90
15239;DHT22;7722;53.274;9.500;2024-01-15T09:33:55;1.30;99.90
15239;DHT22;7722;53.274;9.500;2024-01-15T09:36:24;1.40;99.90
15239;DHT22;7722;53.274;9.500;2024-01-15T09:38:51;1.40;99.90
15239;DHT22;7722;53.274;9.500;2024-01-15T09:41:19;1.40;99.90
15239;DHT22;7722;53.274;9.500;2024-01-15T09:43:46;1.40;99.90
15239;DHT22;7722;53.274;9.500;2024-01-15T09:46:14;1.40;99.90
15239;DHT22;7722;53.274;9.500;2024-01-15T09:48:42;1.50;99.90
15239;DHT22;7722;53.274;9.500;2024-01-15T09:51:10;1.50;99.90
15239;DHT22;7722;53.274;9.500;2024-01-15T09:53:39;1.40;99.90
15239;DHT22;7722;53.274;9.500;2024-01-15T09:56:08;1.30;99.90
15239;DHT22;7722;53.274;9.500;2024-01-15T09:58:38;1.20;99.90
15239;DHT22;7722;53.274;9.500;2024-01-15T10:01:08;1.20;99.90
15239;DHT22;7722;53.274;9.500;2024-01-15T10:03:35;1.10;99.90
15239;DHT22;7722;53.274;9.500;2024-01-15T10:06:04;1.00;99.90
15239;DHT22;7722;53.274;9.500;2024-01-15T10:08:33;0.90;99.90
15239;DHT22;7722;53.274;9.500;2024-01-15T10:11:01;0.90;99.90
15239;DHT22;7722;53.274;9.500;2024-01-15T10:13:30;0.90;99.90
15239;DHT22;7722;53.274;9.500;2024-01-15T10:15:57;0.90;99.90
15239;DHT22;7722;53.274;9.500;2024-01-15T10:18:25;0.80;99.90
15239;DHT22;7722;53.274;9.500;2024-01-15T10:20:52;0.90;99.90
15239;DHT22;7722;53.274;9.500;2024-01-15T10:23:20;0.90;99.90
15239;DHT22;7722;53.274;9.500;2024-01-15T10:25:48;0.90;99.90
15239;DHT22;7722;53.274;9.500;2024-01-15T10:28:19;0.90;99.90
15239;DHT22;7722;53.274;9.500;2024-01-15T10:30:46;0.90;99.90
15239;DHT22;7722;53.274;9.500;2024-01-15T10:33:13;0.90;99.90
15239;DHT22;7722;53.274;9.500;2024-01-15T10:35:41;0.90;99.90
15239;DHT22;7722;53.274;9.500;2024-01-15T10:38:08;0.90;99.90
15239;DHT22;7722;53.274;9.500;2024-01-15T10:40:35;1.00;99.90
15239;DHT22;7722;53.274;9.500;2024-01-15T10:43:04;1.00;99.90
15239;DHT22;7722;53.274;9.500;2024-01-15T10:45:31;1.10;99.90
15239;DHT22;7722;53.274;9.500;2024-01-15T10:47:58;1.20;99.90
15239;DHT22;7722;53.274;9.500;2024-01-15T10:50:28;1.20;99.90
15239;DHT22;7722;53.274;9.500;2024-01-15T10:52:56;1.20;99.90
15239;DHT22;7722;53.274;9.500;2024-01-15T10:55:24;1.20;99.90
15239;DHT22;7722;53.274;9.500;2024-01-15T10:57:52;1.20;99.90
15239;DHT22;7722;53.274;9.500;2024-01-15T11:00:23;1.20;99.90
15239;DHT22;7722;53.274;9.500;2024-01-15T11:02:51;1.30;99.90
15239;DHT22;7722;53.274;9.500;2024-01-15T11:05:21;1.30;99.90
15239;DHT22;7722;53.274;9.500;2024-01-15T11:07:48;1.10;99.90
15239;DHT22;7722;53.274;9.500;2024-01-15T11:10:38;1.20;99.90
15239;DHT22;7722;53.274;9.500;2024-01-15T11:13:05;1.20;99.90
15239;DHT22;7722;53.274;9.500;2024-01-15T11:16:00;1.30;99.90
15239;DHT22;7722;53.274;9.500;2024-01-15T11:18:29;1.30;99.90
15239;DHT22;7722;53.274;9.500;2024-01-15T11:21:21;1.40;99.90
15239;DHT22;7722;53.274;9.500;2024-01-15T11:23:50;1.50;99.90
15239;DHT22;7722;53.274;9.500;2024-01-15T11:26:31;1.30;99.90
15239;DHT22;7722;53.274;9.500;2024-01-15T11:28:59;1.20;99.90
15239;DHT22;7722;53.274;9.500;2024-01-15T11:31:29;1.10;99.90
15239;DHT22;7722;53.274;9.500;2024-01-15T11:33:56;1.10;99.90
15239;DHT22;7722;53.274;9.500;2024-01-15T11:39:40;1.10;99.90
15239;DHT22;7722;53.274;9.500;2024-01-15T11:42:09;1.10;99.90
15239;DHT22;7722;53.274;9.500;2024-01-15T11:44:37;1.10;99.90
15239;DHT22;7722;53.274;9.500;2024-01-15T11:47:06;1.20;99.90
15239;DHT22;7722;53.274;9.500;2024-01-15T11:49:54;1.20;99.90
15239;DHT22;7722;53.274;9.500;2024-01-15T11:52:25;1.20;99.90
15239;DHT22;7722;53.274;9.500;2024-01-15T11:54:58;1.30;99.90
15239;DHT22;7722;53.274;9.500;2024-01-15T11:57:36;1.20;99.90
15239;DHT22;7722;53.274;9.500;2024-01-15T12:00:06;1.30;99.90
15239;DHT22;7722;53.274;9.500;2024-01-15T12:02:35;1.40;99.90
15239;DHT22;7722;53.274;9.500;2024-01-15T12:05:02;1.30;99.90
15239;DHT22;7722;53.274;9.500;2024-01-15T12:07:29;1.20;99.90
15239;DHT22;7722;53.274;9.500;2024-01-15T12:09:56;1.20;99.90
15239;DHT22;7722;53.274;9.500;2024-01-15T12:12:27;1.20;99.90
15239;DHT22;7722;53.274;9.500;2024-01-15T12:14:56;1.20;99.90
15239;DHT22;7722;53.274;9.500;2024-01-15T12:17:23;1.20;99.90
15239;DHT22;7722;53.274;9.500;2024-01-15T12:19:52;1.10;99.90
15239;DHT22;7722;53.274;9.500;2024-01-15T12:22:19;1.10;99.90
15239;DHT22;7722;53.274;9.500;2024-01-15T12:24:46;1.10;99.90
15239;DHT22;7722;53.274;9.500;2024-01-15T12:27:13;1.00;99.90
15239;DHT22;7722;53.274;9.500;2024-01-15T12:29:41;1.00;99.90
15239;DHT22;7722;53.274;9.500;2024-01-15T12:32:08;1.00;99.90
15239;DHT22;7722;53.274;9.500;2024-01-15T12:34:35;1.10;99.90
15239;DHT22;7722;53.274;9.500;2024-01-15T12:37:03;1.10;99.90
15239;DHT22;7722;53.274;9.500;2024-01-15T12:39:31;1.30;99.90
15239;DHT22;7722;53.274;9.500;2024-01-15T12:41:58;1.40;99.90
15239;DHT22;7722;53.274;9.500;2024-01-15T12:44:25;1.40;99.90
15239;DHT22;7722;53.274;9.500;2024-01-15T12:46:52;1.30;99.90
15239;DHT22;7722;53.274;9.500;2024-01-15T12:49:20;1.30;99.90
15239;DHT22;7722;53.274;9.500;2024-01-15T12:51:52;1.00;99.90
15239;DHT22;7722;53.274;9.500;2024-01-15T12:54:22;0.80;99.90
15239;DHT22;7722;53.274;9.500;2024-01-15T12:56:49;0.70;99.90
15239;DHT22;7722;53.274;9.500;2024-01-15T12:59:17;0.70;99.90
15239;DHT22;7722;53.274;9.500;2024-01-15T13:01:44;0.70;99.90
15239;DHT22;7722;53.274;9.500;2024-01-15T13:04:11;0.70;99.90
15239;DHT22;7722;53.274;9.500;2024-01-15T13:06:38;0.70;99.90
15239;DHT22;7722;53.274;9.500;2024-01-15T13:09:05;0.70;99.90
15239;DHT22;7722;53.274;9.500;2024-01-15T13:11:34;0.80;99.90
15239;DHT22;7722;53.274;9.500;2024-01-15T13:14:01;0.90;99.90
15239;DHT22;7722;53.274;9.500;2024-01-15T13:16:28;0.80;99.90
15239;DHT22;7722;53.274;9.500;2024-01-15T13:18:55;0.90;99.90
15239;DHT22;7722;53.274;9.500;2024-01-15T13:21:22;1.00;99.90
15239;DHT22;7722;53.274;9.500;2024-01-15T13:23:50;0.90;99.90
15239;DHT22;7722;53.274;9.500;2024-01-15T13:26:17;0.90;99.90
15239;DHT22;7722;53.274;9.500;2024-01-15T13:28:48;0.90;99.90
15239;DHT22;7722;53.274;9.500;2024-01-15T13:31:16;0.80;99.90
15239;DHT22;7722;53.274;9.500;2024-01-15T13:33:43;0.70;99.90
15239;DHT22;7722;53.274;9.500;2024-01-15T13:36:10;0.90;99.90
15239;DHT22;7722;53.274;9.500;2024-01-15T13:38:37;0.90;99.90
15239;DHT22;7722;53.274;9.500;2024-01-15T13:41:04;0.90;99.90
15239;DHT22;7722;53.274;9.500;2024-01-15T13:43:31;0.90;99.90
15239;DHT22;7722;53.274;9.500;2024-01-15T13:46:00;0.90;99.90
15239;DHT22;7722;53.274;9.500;2024-01-15T13:48:30;0.90;99.90
15239;DHT22;7722;53.274;9.500;2024-01-15T13:50:58;1.00;99.90
15239;DHT22;7722;53.274;9.500;2024-01-15T13:53:26;1.00;99.90
15239;DHT22;7722;53.274;9.500;2024-01-15T13:55:53;0.90;99.90
15239;DHT22;7722;53.274;9.500;2024-01-15T13:58:20;1.00;99.90
15239;DHT22;7722;53.274;9.500;2024-01-15T14:00:47;1.10;99.90
15239;DHT22;7722;53.274;9.500;2024-01-15T14:03:16;1.00;99.90
15239;DHT22;7722;53.274;9.500;2024-01-15T14:05:44;1.00;99.90
15239;DHT22;7722;53.274;9.500;2024-01-15T14:08:11;1.00;99.90
15239;DHT22;7722;53.274;9.500;2024-01-15T14:10:39;1.00;99.90
15239;DHT22;7722;53.274;9.500;2024-01-15T14:13:06;0.90;99.90
15239;DHT22;7722;53.274;9.500;2024-01-15T14:15:33;0.90;99.90
15239;DHT22;7722;53.274;9.500;2024-01-15T14:18:00;0.90;99.90
15239;DHT22;7722;53.274;9.500;2024-01-15T14:20:29;0.80;99.90
15239;DHT22;7722;53.274;9.500;2024-01-15T14:22:56;0.80;99.90
15239;DHT22;7722;53.274;9.500;2024-01-15T14:25:24;0.80;99.90
15239;DHT22;7722;53.274;9.500;2024-01-15T14:27:51;0.90;99.90
15239;DHT22;7722;53.274;9.500;2024-01-15T14:30:18;0.90;99.90
15239;DHT22;7722;53.274;9.500;2024-01-15T14:32:45;0.90;99.90
15239;DHT22;7722;53.274;9.500;2024-01-15T14:35:12;0.80;99.90
15239;DHT22;7722;53.274;9.500;2024-01-15T14:37:41;0.80;99.90
15239;DHT22;7722;53.274;9.500;2024-01-15T14:40:09;0.80;99.90
15239;DHT22;7722;53.274;9.500;2024-01-15T14:42:37;0.80;99.90
15239;DHT22;7722;53.274;9.500;2024-01-15T14:45:05;0.80;99.90
15239;DHT22;7722;53.274;9.500;2024-01-15T14:47:37;0.80;99.90
15239;DHT22;7722;53.274;9.500;2024-01-15T14:50:05;0.80;99.90
15239;DHT22;7722;53.274;9.500;2024-01-15T14:52:32;0.80;99.90
15239;DHT22;7722;53.274;9.500;2024-01-15T14:55:02;0.80;99.90
15239;DHT22;7722;53.274;9.500;2024-01-15T14:57:29;0.80;99.90
15239;DHT22;7722;53.274;9.500;2024-01-15T14:59:56;0.80;99.90
15239;DHT22;7722;53.274;9.500;2024-01-15T15:02:24;0.80;99.90
15239;DHT22;7722;53.274;9.500;2024-01-15T15:04:53;0.80;99.90
15239;DHT22;7722;53.274;9.500;2024-01-15T15:07:21;0.80;99.90
15239;DHT22;7722;53.274;9.500;2024-01-15T15:09:49;0.80;99.90
15239;DHT22;7722;53.274;9.500;2024-01-15T15:12:19;0.80;99.90
15239;DHT22;7722;53.274;9.500;2024-01-15T15:14:46;0.80;99.90
15239;DHT22;7722;53.274;9.500;2024-01-15T15:17:13;0.90;99.90
15239;DHT22;7722;53.274;9.500;2024-01-15T15:19:40;0.80;99.90
15239;DHT22;7722;53.274;9.500;2024-01-15T15:22:07;0.70;99.90
15239;DHT22;7722;53.274;9.500;2024-01-15T15:24:36;0.70;99.90
15239;DHT22;7722;53.274;9.500;2024-01-15T15:27:04;0.70;99.90
15239;DHT22;7722;53.274;9.500;2024-01-15T15:29:33;0.60;99.90
15239;DHT22;7722;53.274;9.500;2024-01-15T15:32:01;0.60;99.90
15239;DHT22;7722;53.274;9.500;2024-01-15T15:34:28;0.60;99.90
15239;DHT22;7722;53.274;9.500;2024-01-15T15:36:56;0.60;99.90
15239;DHT22;7722;53.274;9.500;2024-01-15T15:39:23;0.60;99.90
15239;DHT22;7722;53.274;9.500;2024-01-15T15:41:50;0.60;99.90
15239;DHT22;7722;53.274;9.500;2024-01-15T15:44:17;0.70;99.90
15239;DHT22;7722;53.274;9.500;2024-01-15T15:46:46;0.50;99.90
15239;DHT22;7722;53.274;9.500;2024-01-15T15:49:13;0.60;99.90
15239;DHT22;7722;53.274;9.500;2024-01-15T15:51:41;0.50;99.90
15239;DHT22;7722;53.274;9.500;2024-01-15T15:54:08;0.60;99.90
15239;DHT22;7722;53.274;9.500;2024-01-15T15:56:37;0.60;99.90
15239;DHT22;7722;53.274;9.500;2024-01-15T15:59:05;0.60;99.90
15239;DHT22;7722;53.274;9.500;2024-01-15T16:01:34;0.50;99.90
15239;DHT22;7722;53.274;9.500;2024-01-15T16:04:03;0.60;99.90
15239;DHT22;7722;53.274;9.500;2024-01-15T16:06:30;0.60;99.90
15239;DHT22;7722;53.274;9.500;2024-01-15T16:08:57;0.60;99.90